DAL603 KIAH-KLGA
Flight info
| Callsign | DAL603 |
|---|---|
| Flight time | N/A |
| Altitude | 35000 |
| Route | STRYA8 DPATY DCT VLKNN DCT BURGG Q60 HURTS PROUD2 |
| Aircraft | A321/L-V/N |
Departure
| Time | 2025-09-09 12:48 |
|---|---|
| Airport | George Bush Intercontinental Airport (KIAH) |
Arrival
| Time | N/A |
|---|---|
| Airport | LaGuardia Airport (KLGA) |
| Time | Latitude | Longitude | Altitude | Speed | Heading |
|---|---|---|---|---|---|
| 2025-09-09 12:25 | 29.98847 | -95.35204 | 107 ft | 0 kts | 180° |
| 2025-09-09 12:40 | 29.98924 | -95.35207 | 106 ft | 4 kts | 192° |
| 2025-09-09 12:41 | 29.98920 | -95.35309 | 107 ft | 15 kts | 270° |
| 2025-09-09 12:42 | 29.99039 | -95.35486 | 107 ft | 9 kts | 360° |
| 2025-09-09 12:42 | 29.99142 | -95.35508 | 107 ft | 6 kts | 292° |
| 2025-09-09 12:43 | 29.99160 | -95.35669 | 107 ft | 13 kts | 274° |
| 2025-09-09 12:43 | 29.99110 | -95.35796 | 107 ft | 3 kts | 204° |
| 2025-09-09 12:44 | 29.99105 | -95.35788 | 107 ft | 1 kts | 123° |
| 2025-09-09 12:44 | 29.99090 | -95.35678 | 107 ft | 8 kts | 95° |
| 2025-09-09 12:45 | 29.99030 | -95.35599 | 107 ft | 10 kts | 150° |
| 2025-09-09 12:45 | 29.98923 | -95.35533 | 107 ft | 7 kts | 155° |
| 2025-09-09 12:46 | 29.98856 | -95.35615 | 105 ft | 9 kts | 240° |
| 2025-09-09 12:46 | 29.98781 | -95.35748 | 108 ft | 11 kts | 208° |
| 2025-09-09 12:47 | 29.98518 | -95.35621 | 108 ft | 55 kts | 152° |
| 2025-09-09 12:47 | 29.96063 | -95.34134 | 390 ft | 174 kts | 153° |
| 2025-09-09 12:48 | 29.93902 | -95.32667 | 1135 ft | 199 kts | 150° |
| 2025-09-09 12:48 | 29.91263 | -95.30933 | 1555 ft | 237 kts | 151° |
| 2025-09-09 12:49 | 29.89762 | -95.29955 | 2071 ft | 252 kts | 151° |
| 2025-09-09 12:49 | 29.86527 | -95.27853 | 3101 ft | 282 kts | 151° |
| 2025-09-09 12:50 | 29.83063 | -95.25610 | 4090 ft | 280 kts | 151° |
| 2025-09-09 12:50 | 29.79763 | -95.23476 | 4690 ft | 263 kts | 151° |
| 2025-09-09 12:51 | 29.76694 | -95.21485 | 6414 ft | 252 kts | 151° |
| 2025-09-09 12:51 | 29.72046 | -95.18484 | 8490 ft | 259 kts | 151° |
| 2025-09-09 12:52 | 29.69053 | -95.16163 | 9761 ft | 266 kts | 129° |
| 2025-09-09 12:52 | 29.68201 | -95.14212 | 10038 ft | 281 kts | 99° |
| 2025-09-09 12:53 | 29.69126 | -95.10101 | 11519 ft | 273 kts | 47° |
| 2025-09-09 12:53 | 29.72528 | -95.08450 | 12691 ft | 275 kts | 353° |
| 2025-09-09 12:54 | 29.76122 | -95.09955 | 13851 ft | 278 kts | 336° |
| 2025-09-09 12:54 | 29.79707 | -95.11742 | 15000 ft | 283 kts | 336° |
| 2025-09-09 12:55 | 29.83463 | -95.13597 | 15593 ft | 309 kts | 336° |
| 2025-09-09 12:55 | 29.85393 | -95.14549 | 16468 ft | 297 kts | 336° |
| 2025-09-09 12:56 | 29.91426 | -95.17539 | 17583 ft | 320 kts | 336° |
| 2025-09-09 12:56 | 29.97316 | -95.20462 | 19793 ft | 306 kts | 336° |
| 2025-09-09 12:57 | 29.99275 | -95.21436 | 20266 ft | 308 kts | 336° |
| 2025-09-09 12:57 | 30.03245 | -95.23410 | 21153 ft | 313 kts | 337° |
| 2025-09-09 12:58 | 30.07528 | -95.24411 | 22001 ft | 319 kts | 1° |
| 2025-09-09 12:58 | 30.11925 | -95.23243 | 22457 ft | 338 kts | 26° |
| 2025-09-09 12:59 | 30.15994 | -95.20160 | 22722 ft | 362 kts | 34° |
| 2025-09-09 12:59 | 30.22495 | -95.14969 | 23332 ft | 389 kts | 34° |
| 2025-09-09 13:01 | 30.32875 | -95.06654 | 26719 ft | 352 kts | 34° |
| 2025-09-09 13:03 | 30.49543 | -94.93612 | 29121 ft | 369 kts | 33° |
| 2025-09-09 13:04 | 30.64961 | -94.81789 | 30418 ft | 395 kts | 33° |
| 2025-09-09 13:07 | 30.86604 | -94.65090 | 32247 ft | 418 kts | 33° |
| 2025-09-09 13:09 | 31.04576 | -94.45232 | 34699 ft | 405 kts | 63° |
| 2025-09-09 13:11 | 31.13678 | -94.24074 | 35006 ft | 435 kts | 63° |
| 2025-09-09 13:13 | 31.26094 | -93.94982 | 35008 ft | 446 kts | 63° |
| 2025-09-09 13:15 | 31.35002 | -93.71822 | 34996 ft | 447 kts | 69° |
| 2025-09-09 13:17 | 31.45033 | -93.42349 | 35001 ft | 451 kts | 68° |
| 2025-09-09 13:19 | 31.53166 | -93.18391 | 35009 ft | 451 kts | 68° |